createdAt,value
2022-11-12T00:01:11.726Z,14.70
2022-11-12T00:03:41.431Z,14.70
2022-11-12T00:06:08.191Z,14.70
2022-11-12T00:08:36.658Z,14.70
2022-11-12T00:11:07.509Z,14.70
2022-11-12T00:13:37.433Z,14.70
2022-11-12T00:16:05.833Z,14.70
2022-11-12T00:18:37.997Z,14.80
2022-11-12T00:21:06.226Z,14.80
2022-11-12T00:23:32.979Z,14.70
2022-11-12T00:28:44.374Z,14.70
2022-11-12T00:31:15.516Z,14.70
2022-11-12T00:33:43.621Z,14.70
2022-11-12T00:36:11.612Z,14.70
2022-11-12T00:38:38.299Z,14.70
2022-11-12T00:41:08.087Z,14.70
2022-11-12T00:43:34.844Z,14.70
2022-11-12T00:46:02.761Z,14.70
2022-11-12T00:48:32.579Z,14.70
2022-11-12T00:51:01.064Z,14.70
2022-11-12T00:53:27.856Z,14.70
2022-11-12T00:56:05.298Z,14.70
2022-11-12T00:58:32.831Z,14.70
2022-11-12T01:01:08.750Z,14.70
2022-11-12T01:03:36.918Z,14.70
2022-11-12T01:06:11.610Z,14.60
2022-11-12T01:08:39.075Z,14.70
2022-11-12T01:11:10.053Z,14.70
2022-11-12T01:13:42.948Z,14.70
2022-11-12T01:16:20.501Z,14.70
2022-11-12T01:18:48.006Z,14.70
2022-11-12T01:21:15.871Z,14.70
2022-11-12T01:23:43.400Z,14.60
2022-11-12T01:26:15.921Z,14.60
2022-11-12T01:28:43.093Z,14.60
2022-11-12T01:31:17.728Z,14.60
2022-11-12T01:33:45.932Z,14.60
2022-11-12T01:36:14.322Z,14.70
2022-11-12T01:38:42.195Z,14.70
2022-11-12T01:41:13.051Z,14.70
2022-11-12T01:43:40.890Z,14.70
2022-11-12T01:46:16.098Z,14.70
2022-11-12T01:49:04.557Z,14.60
2022-11-12T01:51:36.065Z,14.70
2022-11-12T01:54:06.677Z,14.70
2022-11-12T01:56:33.710Z,14.70
2022-11-12T01:59:06.378Z,14.70
2022-11-12T02:01:34.198Z,14.60
2022-11-12T02:04:01.095Z,14.50
2022-11-12T02:06:27.835Z,14.60
2022-11-12T02:08:54.643Z,14.60
2022-11-12T02:11:21.783Z,14.60
2022-11-12T02:14:05.461Z,14.60
2022-11-12T02:16:38.785Z,14.60
2022-11-12T02:19:09.016Z,14.60
2022-11-12T02:21:36.276Z,14.50
2022-11-12T02:24:13.910Z,14.60
2022-11-12T02:26:51.363Z,14.60
2022-11-12T02:29:18.135Z,14.60
2022-11-12T02:31:44.903Z,14.50
2022-11-12T02:34:11.623Z,14.50
2022-11-12T02:36:38.497Z,14.50
2022-11-12T02:39:07.616Z,14.50
2022-11-12T02:41:34.270Z,14.40
2022-11-12T02:44:01.206Z,14.40
2022-11-12T02:46:27.951Z,14.40
2022-11-12T02:48:54.615Z,14.40
2022-11-12T02:51:21.330Z,14.40
2022-11-12T02:53:47.991Z,14.30
2022-11-12T02:56:14.729Z,14.30
2022-11-12T02:58:41.459Z,14.30
2022-11-12T03:01:08.327Z,14.40
2022-11-12T03:03:35.154Z,14.50
2022-11-12T03:06:03.017Z,14.40
2022-11-12T03:08:29.971Z,14.30
2022-11-12T03:10:56.791Z,14.40
2022-11-12T03:13:23.461Z,14.40
2022-11-12T03:15:50.102Z,14.50
2022-11-12T03:18:17.868Z,14.40
2022-11-12T03:20:46.289Z,14.40
2022-11-12T03:23:13.014Z,14.40
2022-11-12T03:25:39.726Z,14.40
2022-11-12T03:28:09.395Z,14.30
2022-11-12T03:30:38.865Z,14.40
2022-11-12T03:33:07.574Z,14.40
2022-11-12T03:35:35.124Z,14.50
2022-11-12T03:38:08.955Z,14.40
2022-11-12T03:40:35.742Z,14.50
2022-11-12T03:43:02.463Z,14.40
2022-11-12T03:45:29.277Z,14.40
2022-11-12T03:47:57.844Z,14.40
2022-11-12T03:50:27.750Z,14.40
2022-11-12T03:52:57.591Z,14.50
2022-11-12T03:55:27.275Z,14.50
2022-11-12T03:57:56.438Z,14.40
2022-11-12T04:00:25.009Z,14.20
2022-11-12T04:02:53.033Z,14.40
2022-11-12T04:05:38.816Z,14.40
2022-11-12T04:08:32.902Z,14.40
2022-11-12T04:11:00.009Z,14.40
2022-11-12T04:13:29.987Z,14.40
2022-11-12T04:16:21.530Z,14.30
2022-11-12T04:19:09.435Z,14.30
2022-11-12T04:21:56.043Z,14.30
2022-11-12T04:24:52.801Z,14.40
2022-11-12T04:27:25.248Z,14.40
2022-11-12T04:30:12.297Z,14.40
2022-11-12T04:32:52.892Z,14.40
2022-11-12T04:35:19.938Z,14.30
2022-11-12T04:37:47.754Z,14.30
2022-11-12T04:40:44.892Z,14.30
2022-11-12T04:43:33.401Z,14.30
2022-11-12T04:46:01.560Z,14.30
2022-11-12T04:48:28.767Z,14.40
2022-11-12T04:50:59.281Z,14.30
2022-11-12T04:53:26.678Z,14.40
2022-11-12T04:55:54.808Z,14.40
2022-11-12T04:58:22.215Z,14.40
2022-11-12T05:00:50.587Z,14.40
2022-11-12T05:03:19.375Z,14.40
2022-11-12T05:05:46.182Z,14.30
2022-11-12T05:08:12.907Z,14.40
2022-11-12T05:10:39.633Z,14.40
2022-11-12T05:13:06.371Z,14.30
2022-11-12T05:15:33.063Z,14.30
2022-11-12T05:17:59.786Z,14.20
2022-11-12T05:20:26.500Z,14.20
2022-11-12T05:23:06.611Z,14.30
2022-11-12T05:25:34.723Z,14.20
2022-11-12T05:28:01.383Z,14.20
2022-11-12T05:30:28.125Z,14.30
2022-11-12T05:32:54.862Z,14.30
2022-11-12T05:35:21.599Z,14.30
2022-11-12T05:37:48.297Z,14.30
2022-11-12T05:40:15.125Z,14.30
2022-11-12T05:42:41.798Z,14.30
2022-11-12T05:45:09.190Z,14.30
2022-11-12T05:47:35.859Z,14.30
2022-11-12T05:50:02.550Z,14.30
2022-11-12T05:52:29.290Z,14.30
2022-11-12T05:54:55.926Z,14.30
2022-11-12T05:57:22.687Z,14.30
2022-11-12T05:59:49.466Z,14.20
2022-11-12T06:02:16.257Z,14.30
2022-11-12T06:04:43.102Z,14.30
2022-11-12T06:07:09.778Z,14.30
2022-11-12T06:09:36.592Z,14.30
2022-11-12T06:12:06.281Z,14.60
2022-11-12T06:14:32.937Z,14.60
2022-11-12T06:16:59.684Z,14.80
2022-11-12T06:19:27.449Z,14.90
2022-11-12T06:21:54.179Z,14.90
2022-11-12T06:24:21.003Z,14.90
2022-11-12T06:26:47.647Z,14.80
2022-11-12T06:29:14.389Z,14.70
2022-11-12T06:31:41.125Z,14.60
2022-11-12T06:34:07.964Z,14.60
2022-11-12T06:36:35.259Z,14.70
2022-11-12T06:39:01.919Z,14.70
2022-11-12T06:41:28.610Z,14.70
2022-11-12T06:43:55.366Z,14.70
2022-11-12T06:46:22.027Z,14.70
2022-11-12T06:48:48.726Z,14.60
2022-11-12T06:51:20.205Z,14.60
2022-11-12T06:53:47.352Z,14.70
2022-11-12T06:56:15.238Z,14.70
2022-11-12T06:58:42.476Z,14.40
2022-11-12T07:01:14.687Z,14.80
2022-11-12T07:03:42.531Z,14.80
2022-11-12T07:06:15.701Z,14.70
2022-11-12T07:08:42.610Z,14.70
2022-11-12T07:11:09.824Z,14.70
2022-11-12T07:13:37.027Z,14.80
2022-11-12T07:16:06.246Z,14.80
2022-11-12T07:18:34.485Z,14.90
2022-11-12T07:21:03.917Z,14.80
2022-11-12T07:23:32.618Z,14.80
2022-11-12T07:26:01.999Z,14.90
2022-11-12T07:28:29.945Z,14.70
2022-11-12T07:31:05.152Z,14.60
2022-11-12T07:33:32.877Z,14.70
2022-11-12T07:36:00.540Z,11.80
2022-11-12T07:38:28.788Z,7.50
2022-11-12T07:41:02.627Z,6.40
2022-11-12T07:43:30.774Z,6.20
2022-11-12T07:46:07.505Z,6.10
2022-11-12T07:48:37.311Z,6.10
2022-11-12T07:51:05.555Z,6.00
2022-11-12T07:53:32.512Z,6.10
2022-11-12T07:56:00.861Z,6.10
2022-11-12T07:58:30.314Z,6.30
2022-11-12T08:00:57.128Z,6.20
2022-11-12T08:03:23.892Z,6.20
2022-11-12T08:05:52.665Z,6.30
2022-11-12T08:08:19.439Z,6.20
2022-11-12T08:10:46.106Z,6.10
2022-11-12T08:13:12.751Z,6.20
2022-11-12T08:15:39.412Z,6.10
2022-11-12T08:18:06.254Z,6.30
2022-11-12T08:20:33.017Z,6.50
2022-11-12T08:23:00.472Z,6.60
2022-11-12T08:25:27.363Z,6.70
2022-11-12T08:28:02.804Z,6.80
2022-11-12T08:30:30.575Z,7.00
2022-11-12T08:32:59.077Z,7.50
2022-11-12T08:35:27.177Z,7.40
2022-11-12T08:38:05.353Z,7.30
2022-11-12T08:40:32.738Z,7.40
2022-11-12T08:43:02.327Z,7.40
2022-11-12T08:45:31.977Z,7.50
2022-11-12T08:48:10.642Z,7.80
2022-11-12T08:50:37.437Z,7.80
2022-11-12T08:53:06.990Z,7.80
2022-11-12T08:55:34.349Z,8.00
2022-11-12T08:58:04.554Z,7.80
2022-11-12T09:00:33.721Z,7.90
2022-11-12T09:03:01.336Z,8.00
2022-11-12T09:05:28.624Z,8.20
2022-11-12T09:08:05.315Z,8.20
2022-11-12T09:10:33.060Z,8.20
2022-11-12T09:12:59.994Z,8.30
2022-11-12T09:15:42.237Z,8.40
2022-11-12T09:18:13.406Z,8.40
2022-11-12T09:20:40.271Z,8.60
2022-11-12T09:23:14.195Z,8.70
2022-11-12T09:25:42.316Z,8.70
2022-11-12T09:28:11.474Z,8.80
2022-11-12T09:30:42.213Z,9.00
2022-11-12T09:33:20.945Z,8.80
2022-11-12T09:35:48.319Z,8.90
2022-11-12T09:38:17.816Z,9.00
2022-11-12T09:40:56.051Z,9.00
2022-11-12T09:43:39.949Z,9.00
2022-11-12T09:46:33.611Z,9.20
2022-11-12T09:49:17.855Z,9.20
2022-11-12T09:52:02.535Z,9.40
2022-11-12T09:54:32.831Z,9.40
2022-11-12T09:56:59.635Z,9.40
2022-11-12T09:59:32.959Z,9.40
2022-11-12T10:02:27.811Z,9.40
2022-11-12T10:05:00.347Z,9.40
2022-11-12T10:07:55.038Z,9.50
2022-11-12T10:10:37.078Z,9.70
2022-11-12T10:13:31.405Z,9.60
2022-11-12T10:16:38.728Z,9.80
2022-11-12T10:19:41.803Z,9.80
2022-11-12T10:22:55.021Z,9.90
2022-11-12T10:25:21.855Z,10.20
2022-11-12T10:27:49.565Z,10.40
2022-11-12T10:30:19.737Z,10.40
2022-11-12T10:32:48.387Z,10.60
2022-11-12T10:35:18.233Z,11.10
2022-11-12T10:38:00.353Z,11.10
2022-11-12T10:40:36.770Z,11.00
2022-11-12T10:43:15.780Z,11.80
2022-11-12T10:45:43.634Z,11.40
2022-11-12T10:48:35.660Z,11.20
2022-11-12T10:51:04.450Z,11.10
2022-11-12T10:53:40.426Z,11.20
2022-11-12T10:56:27.463Z,11.00
2022-11-12T10:59:17.667Z,10.90
2022-11-12T11:02:15.414Z,11.10
2022-11-12T11:04:42.627Z,11.00
2022-11-12T11:07:24.625Z,11.20
2022-11-12T11:09:59.245Z,11.20
2022-11-12T11:12:29.683Z,11.30
2022-11-12T11:15:15.608Z,11.30
2022-11-12T11:17:48.022Z,11.30
2022-11-12T11:20:26.492Z,11.40
2022-11-12T11:22:57.104Z,11.60
2022-11-12T11:25:28.253Z,11.60
2022-11-12T11:28:11.852Z,11.70
2022-11-12T11:30:54.293Z,11.70
2022-11-12T11:33:44.051Z,11.90
2022-11-12T11:36:42.082Z,12.00
2022-11-12T11:39:20.801Z,12.30
2022-11-12T11:42:11.904Z,12.00
2022-11-12T11:44:43.875Z,12.40
2022-11-12T11:47:43.944Z,12.30
2022-11-12T11:50:27.261Z,12.10
2022-11-12T11:53:05.911Z,12.10
2022-11-12T11:55:56.455Z,12.20
2022-11-12T11:58:23.209Z,12.20
2022-11-12T12:01:03.525Z,12.50
2022-11-12T12:03:54.342Z,12.50
2022-11-12T12:06:25.974Z,12.60
2022-11-12T12:09:10.804Z,12.40
2022-11-12T12:11:50.690Z,12.30
2022-11-12T12:14:26.267Z,12.60
2022-11-12T12:17:06.729Z,12.50
2022-11-12T12:19:45.454Z,12.50
2022-11-12T12:22:27.080Z,12.50
2022-11-12T12:24:59.078Z,12.60
2022-11-12T12:27:34.486Z,12.90
2022-11-12T12:30:18.275Z,12.80
2022-11-12T12:32:59.152Z,12.80
2022-11-12T12:35:44.572Z,12.80
2022-11-12T12:38:18.573Z,12.70
2022-11-12T12:40:54.402Z,12.90
2022-11-12T12:43:25.050Z,12.80
2022-11-12T12:45:51.735Z,12.90
2022-11-12T12:48:25.114Z,12.80
2022-11-12T12:50:53.656Z,12.80
2022-11-12T12:53:23.125Z,13.00
2022-11-12T12:55:51.890Z,13.60
2022-11-12T12:58:51.631Z,13.20
2022-11-12T13:01:21.320Z,13.30
2022-11-12T13:03:57.531Z,13.00
2022-11-12T13:06:27.955Z,13.20
2022-11-12T13:09:05.757Z,13.20
2022-11-12T13:11:59.843Z,13.10
2022-11-12T13:14:35.592Z,13.50
2022-11-12T13:17:08.426Z,13.30
2022-11-12T13:20:11.734Z,13.20
2022-11-12T13:22:38.418Z,13.40
2022-11-12T13:25:13.205Z,13.30
2022-11-12T13:27:43.302Z,13.50
2022-11-12T13:30:18.600Z,13.50
2022-11-12T13:32:48.412Z,13.60
2022-11-12T13:35:27.500Z,13.50
2022-11-12T13:38:15.803Z,13.50
2022-11-12T13:40:45.832Z,13.50
2022-11-12T13:43:15.642Z,13.60
2022-11-12T13:46:07.253Z,13.80
2022-11-12T13:48:47.129Z,13.60
2022-11-12T13:51:23.087Z,13.70
2022-11-12T13:53:49.795Z,13.90
2022-11-12T13:56:31.341Z,13.90
2022-11-12T13:59:19.477Z,13.90
2022-11-12T14:01:47.196Z,13.70
2022-11-12T14:04:16.895Z,13.80
2022-11-12T14:06:48.089Z,13.90
2022-11-12T14:09:30.124Z,13.90
2022-11-12T14:12:13.254Z,13.80
2022-11-12T14:15:17.785Z,13.80
2022-11-12T14:17:56.516Z,13.70
2022-11-12T14:20:33.194Z,13.70
2022-11-12T14:23:15.825Z,13.60
2022-11-12T14:25:52.286Z,13.60
2022-11-12T14:28:29.044Z,13.80
2022-11-12T14:30:57.929Z,13.70
2022-11-12T14:33:26.866Z,13.70
2022-11-12T14:36:15.068Z,13.60
2022-11-12T14:38:44.754Z,13.70
2022-11-12T14:41:20.515Z,13.60
2022-11-12T14:44:11.556Z,13.60
2022-11-12T14:46:51.446Z,13.60
2022-11-12T14:49:20.818Z,13.60
2022-11-12T14:51:51.366Z,13.50
2022-11-12T14:54:43.628Z,13.60
2022-11-12T14:57:23.457Z,13.40
2022-11-12T14:59:51.419Z,13.50
2022-11-12T15:02:41.639Z,13.40
2022-11-12T15:05:18.142Z,13.40
2022-11-12T15:08:11.325Z,13.40
2022-11-12T15:10:45.624Z,13.30
2022-11-12T15:13:21.403Z,13.20
2022-11-12T15:16:20.451Z,13.30
2022-11-12T15:19:15.497Z,13.20
2022-11-12T15:21:50.957Z,13.20
2022-11-12T15:24:29.389Z,13.20
2022-11-12T15:26:58.166Z,13.00
2022-11-12T15:29:29.453Z,13.00
2022-11-12T15:32:13.777Z,13.00
2022-11-12T15:34:40.691Z,12.90
2022-11-12T15:37:19.828Z,12.80
2022-11-12T15:39:52.408Z,12.60
2022-11-12T15:42:34.247Z,12.50
2022-11-12T15:45:21.882Z,12.50
2022-11-12T15:47:48.650Z,12.40
2022-11-12T15:50:18.219Z,12.40
2022-11-12T15:52:45.328Z,12.10
2022-11-12T15:55:13.067Z,11.90
2022-11-12T15:57:46.844Z,11.80
2022-11-12T16:00:19.455Z,11.90
2022-11-12T16:02:52.062Z,12.40
2022-11-12T16:05:19.275Z,13.30
2022-11-12T16:07:46.001Z,14.50
2022-11-12T16:10:15.270Z,13.00
2022-11-12T16:12:43.323Z,12.20
2022-11-12T16:15:18.410Z,12.00
2022-11-12T16:17:46.280Z,11.80
2022-11-12T16:20:14.963Z,11.60
2022-11-12T16:22:41.800Z,11.50
2022-11-12T16:25:09.113Z,11.60
2022-11-12T16:27:38.163Z,11.60
2022-11-12T16:30:07.473Z,11.40
2022-11-12T16:32:35.218Z,11.30
2022-11-12T16:35:02.134Z,11.30
2022-11-12T16:37:28.875Z,11.10
2022-11-12T16:39:55.530Z,11.10
2022-11-12T16:42:22.238Z,11.00
2022-11-12T16:44:48.890Z,10.90
2022-11-12T16:47:15.673Z,10.80
2022-11-12T16:49:42.854Z,10.80
2022-11-12T16:52:10.455Z,10.70
2022-11-12T16:54:37.193Z,11.10
2022-11-12T16:57:04.432Z,11.20
2022-11-12T16:59:31.361Z,11.10
2022-11-12T17:01:58.526Z,11.10
2022-11-12T17:04:25.261Z,11.00
2022-11-12T17:06:52.103Z,10.90
2022-11-12T17:09:28.695Z,10.90
2022-11-12T17:11:55.420Z,10.90
2022-11-12T17:14:28.130Z,10.90
2022-11-12T17:16:55.130Z,10.60
2022-11-12T17:19:21.857Z,10.40
2022-11-12T17:21:48.602Z,10.20
2022-11-12T17:24:15.423Z,10.00
2022-11-12T17:26:42.129Z,10.00
2022-11-12T17:29:08.799Z,9.90
2022-11-12T17:31:35.634Z,10.00
2022-11-12T17:34:06.916Z,9.90
2022-11-12T17:36:33.599Z,9.80
2022-11-12T17:39:01.574Z,9.80
2022-11-12T17:41:31.218Z,9.90
2022-11-12T17:43:59.426Z,10.20
2022-11-12T17:46:26.801Z,10.20
2022-11-12T17:48:54.928Z,10.30
2022-11-12T17:51:23.861Z,11.00
2022-11-12T17:53:51.242Z,11.40
2022-11-12T17:56:20.526Z,11.80
2022-11-12T17:58:49.118Z,12.00
2022-11-12T18:01:22.263Z,12.00
2022-11-12T18:03:53.002Z,12.20
2022-11-12T18:06:31.249Z,12.30
2022-11-12T18:09:11.869Z,12.20
2022-11-12T18:11:45.580Z,12.20
2022-11-12T18:14:13.376Z,12.20
2022-11-12T18:16:40.724Z,12.30
2022-11-12T18:19:10.994Z,12.20
2022-11-12T18:21:40.794Z,12.10
2022-11-12T18:24:15.596Z,12.00
2022-11-12T18:26:42.962Z,12.00
2022-11-12T18:29:09.811Z,11.80
2022-11-12T18:31:36.568Z,11.80
2022-11-12T18:34:05.688Z,11.70
2022-11-12T18:36:32.420Z,11.70
2022-11-12T18:39:05.675Z,11.80
2022-11-12T18:41:34.109Z,11.70
2022-11-12T18:44:01.916Z,11.60
2022-11-12T18:46:28.626Z,11.50
2022-11-12T18:48:55.317Z,11.50
2022-11-12T18:51:23.261Z,11.10
2022-11-12T18:53:50.046Z,11.20
2022-11-12T18:56:19.876Z,11.50
2022-11-12T18:58:47.005Z,11.60
2022-11-12T19:01:16.256Z,11.80
2022-11-12T19:03:43.724Z,11.80
2022-11-12T19:06:12.658Z,11.70
2022-11-12T19:08:40.106Z,11.70
2022-11-12T19:11:09.530Z,11.70
2022-11-12T19:13:37.053Z,11.50
2022-11-12T19:16:11.846Z,11.60
2022-11-12T19:18:41.738Z,11.60
2022-11-12T19:21:17.524Z,11.60
2022-11-12T19:23:45.706Z,11.60
2022-11-12T19:26:17.615Z,11.50
2022-11-12T19:28:44.964Z,11.40
2022-11-12T19:31:21.274Z,11.40
2022-11-12T19:33:48.076Z,11.40
2022-11-12T19:36:23.778Z,11.40
2022-11-12T19:38:58.585Z,11.30
2022-11-12T19:41:25.874Z,11.40
2022-11-12T19:43:52.966Z,11.40
2022-11-12T19:46:20.393Z,11.50
2022-11-12T19:48:47.222Z,11.50
2022-11-12T19:51:14.986Z,11.50
2022-11-12T19:53:46.631Z,11.40
2022-11-12T19:56:17.214Z,11.40
2022-11-12T19:58:48.566Z,11.30
2022-11-12T20:01:17.753Z,11.40
2022-11-12T20:03:44.954Z,11.30
2022-11-12T20:06:17.679Z,11.30
2022-11-12T20:08:44.740Z,11.30
2022-11-12T20:11:12.466Z,11.00
2022-11-12T20:13:39.583Z,11.00
2022-11-12T20:16:12.883Z,11.20
2022-11-12T20:18:39.627Z,11.30
2022-11-12T20:21:06.408Z,11.30
2022-11-12T20:23:36.190Z,11.20
2022-11-12T20:26:08.391Z,11.20
2022-11-12T20:28:36.806Z,11.30
2022-11-12T20:31:06.668Z,11.30
2022-11-12T20:33:37.885Z,11.20
2022-11-12T20:36:14.524Z,11.20
2022-11-12T20:38:43.347Z,11.20
2022-11-12T20:41:21.569Z,11.10
2022-11-12T20:43:51.406Z,11.10
2022-11-12T20:46:18.075Z,11.10
2022-11-12T20:48:44.888Z,11.10
2022-11-12T20:51:23.772Z,11.00
2022-11-12T20:53:58.804Z,11.10
2022-11-12T20:56:27.267Z,11.00
2022-11-12T20:58:54.439Z,10.90
2022-11-12T21:01:22.975Z,10.90
2022-11-12T21:03:50.142Z,10.80
2022-11-12T21:06:22.997Z,10.90
2022-11-12T21:08:50.024Z,10.90
2022-11-12T21:11:19.612Z,10.90
2022-11-12T21:13:46.845Z,11.00
2022-11-12T21:16:14.448Z,10.90
2022-11-12T21:18:41.929Z,10.70
2022-11-12T21:21:10.008Z,10.70
2022-11-12T21:23:39.016Z,10.70
2022-11-12T21:26:14.461Z,10.60
2022-11-12T21:28:46.215Z,10.70
2022-11-12T21:31:15.957Z,10.80
2022-11-12T21:33:42.838Z,10.70
2022-11-12T21:36:16.316Z,10.60
2022-11-12T21:38:46.188Z,10.60
2022-11-12T21:41:15.613Z,10.70
2022-11-12T21:43:43.446Z,10.60
2022-11-12T21:46:13.126Z,10.50
2022-11-12T21:48:42.192Z,11.00
2022-11-12T21:51:14.755Z,11.20
2022-11-12T21:53:44.476Z,11.30
2022-11-12T21:56:12.713Z,11.40
2022-11-12T21:58:52.125Z,11.40
2022-11-12T22:01:21.391Z,11.40
2022-11-12T22:03:50.046Z,11.40
2022-11-12T22:06:18.168Z,11.60
2022-11-12T22:08:45.579Z,11.60
2022-11-12T22:11:15.119Z,11.50
2022-11-12T22:13:42.691Z,11.50
2022-11-12T22:16:15.729Z,11.50
2022-11-12T22:18:43.951Z,11.50
2022-11-12T22:21:13.809Z,11.60
2022-11-12T22:23:40.690Z,11.60
2022-11-12T22:26:10.996Z,11.70
2022-11-12T22:28:37.963Z,11.70
2022-11-12T22:31:16.473Z,11.60
2022-11-12T22:33:43.254Z,11.60
2022-11-12T22:36:15.709Z,11.50
2022-11-12T22:38:45.064Z,11.60
2022-11-12T22:41:14.803Z,11.60
2022-11-12T22:43:42.303Z,11.60
2022-11-12T22:46:14.494Z,11.60
2022-11-12T22:48:42.211Z,11.50
2022-11-12T22:51:14.498Z,11.40
2022-11-12T22:53:44.866Z,11.40
2022-11-12T22:56:15.159Z,11.50
2022-11-12T22:58:44.227Z,11.60
2022-11-12T23:01:24.009Z,11.60
2022-11-12T23:03:52.638Z,11.60
2022-11-12T23:06:19.781Z,11.60
2022-11-12T23:08:47.008Z,11.50
2022-11-12T23:11:16.524Z,11.50
2022-11-12T23:13:47.125Z,11.60
2022-11-12T23:16:17.443Z,11.50
2022-11-12T23:18:44.548Z,11.60
2022-11-12T23:21:17.529Z,11.70
2022-11-12T23:23:44.814Z,11.60
2022-11-12T23:26:14.930Z,11.60
2022-11-12T23:28:41.904Z,11.50
2022-11-12T23:31:17.375Z,11.40
2022-11-12T23:33:45.598Z,11.40
2022-11-12T23:36:12.954Z,11.50
2022-11-12T23:38:40.973Z,11.50
2022-11-12T23:41:08.060Z,11.50
2022-11-12T23:43:35.074Z,11.50
2022-11-12T23:46:03.277Z,11.50
2022-11-12T23:48:33.213Z,11.50
2022-11-12T23:51:22.113Z,11.60
2022-11-12T23:53:50.294Z,11.60
2022-11-12T23:56:19.387Z,11.60
2022-11-12T23:58:47.111Z,11.50
